sensor_id;sensor_type;location;lat;lon;timestamp;P1;durP1;ratioP1;P2;durP2;ratioP2
22415;SDS011;12204;50.600;4.608;2023-05-02T00:04:54;9.00;;;3.85;;
22415;SDS011;12204;50.600;4.608;2023-05-02T00:09:58;9.35;;;3.95;;
22415;SDS011;12204;50.600;4.608;2023-05-02T00:15:05;8.70;;;3.50;;
22415;SDS011;12204;50.600;4.608;2023-05-02T00:20:10;8.38;;;3.60;;
22415;SDS011;12204;50.600;4.608;2023-05-02T00:25:14;8.23;;;3.50;;
22415;SDS011;12204;50.600;4.608;2023-05-02T00:30:19;10.98;;;3.58;;
22415;SDS011;12204;50.600;4.608;2023-05-02T00:35:22;8.07;;;3.60;;
22415;SDS011;12204;50.600;4.608;2023-05-02T00:40:26;9.65;;;3.60;;
22415;SDS011;12204;50.600;4.608;2023-05-02T00:45:30;7.40;;;3.42;;
22415;SDS011;12204;50.600;4.608;2023-05-02T00:50:34;8.35;;;3.20;;
22415;SDS011;12204;50.600;4.608;2023-05-02T00:55:40;8.45;;;3.70;;
22415;SDS011;12204;50.600;4.608;2023-05-02T01:00:49;8.52;;;3.55;;
22415;SDS011;12204;50.600;4.608;2023-05-02T01:06:19;7.07;;;3.15;;
22415;SDS011;12204;50.600;4.608;2023-05-02T01:11:38;8.02;;;3.42;;
22415;SDS011;12204;50.600;4.608;2023-05-02T01:16:55;7.63;;;3.20;;
22415;SDS011;12204;50.600;4.608;2023-05-02T01:21:59;11.30;;;3.58;;
22415;SDS011;12204;50.600;4.608;2023-05-02T01:27:10;8.30;;;3.50;;
22415;SDS011;12204;50.600;4.608;2023-05-02T01:32:25;7.97;;;3.40;;
22415;SDS011;12204;50.600;4.608;2023-05-02T01:37:31;8.30;;;3.25;;
22415;SDS011;12204;50.600;4.608;2023-05-02T01:42:37;6.78;;;3.20;;
22415;SDS011;12204;50.600;4.608;2023-05-02T01:47:44;9.75;;;3.13;;
22415;SDS011;12204;50.600;4.608;2023-05-02T01:52:50;6.32;;;3.03;;
22415;SDS011;12204;50.600;4.608;2023-05-02T01:57:55;8.55;;;3.10;;
22415;SDS011;12204;50.600;4.608;2023-05-02T02:03:00;8.52;;;3.10;;
22415;SDS011;12204;50.600;4.608;2023-05-02T02:08:08;9.73;;;3.25;;
22415;SDS011;12204;50.600;4.608;2023-05-02T02:13:12;6.80;;;3.10;;
22415;SDS011;12204;50.600;4.608;2023-05-02T02:18:28;7.57;;;3.10;;
22415;SDS011;12204;50.600;4.608;2023-05-02T02:23:38;7.45;;;3.30;;
22415;SDS011;12204;50.600;4.608;2023-05-02T02:28:45;7.25;;;3.00;;
22415;SDS011;12204;50.600;4.608;2023-05-02T02:33:49;7.72;;;3.10;;
22415;SDS011;12204;50.600;4.608;2023-05-02T02:38:54;6.15;;;2.90;;
22415;SDS011;12204;50.600;4.608;2023-05-02T02:44:14;6.90;;;3.13;;
22415;SDS011;12204;50.600;4.608;2023-05-02T02:49:34;8.10;;;3.03;;
22415;SDS011;12204;50.600;4.608;2023-05-02T02:54:54;6.47;;;3.10;;
22415;SDS011;12204;50.600;4.608;2023-05-02T03:00:08;7.95;;;3.40;;
22415;SDS011;12204;50.600;4.608;2023-05-02T03:05:19;10.48;;;3.28;;
22415;SDS011;12204;50.600;4.608;2023-05-02T03:10:24;8.25;;;3.00;;
22415;SDS011;12204;50.600;4.608;2023-05-02T03:15:35;11.05;;;3.40;;
22415;SDS011;12204;50.600;4.608;2023-05-02T03:21:32;10.38;;;2.80;;
22415;SDS011;12204;50.600;4.608;2023-05-02T03:26:43;8.40;;;3.00;;
22415;SDS011;12204;50.600;4.608;2023-05-02T03:31:50;6.53;;;3.00;;
22415;SDS011;12204;50.600;4.608;2023-05-02T03:36:56;9.00;;;3.00;;
22415;SDS011;12204;50.600;4.608;2023-05-02T03:42:00;8.88;;;3.00;;
22415;SDS011;12204;50.600;4.608;2023-05-02T03:47:03;8.93;;;2.90;;
22415;SDS011;12204;50.600;4.608;2023-05-02T03:52:14;6.63;;;3.28;;
22415;SDS011;12204;50.600;4.608;2023-05-02T03:57:19;7.28;;;3.30;;
22415;SDS011;12204;50.600;4.608;2023-05-02T04:02:23;7.45;;;2.83;;
22415;SDS011;12204;50.600;4.608;2023-05-02T04:07:29;6.57;;;3.10;;
22415;SDS011;12204;50.600;4.608;2023-05-02T04:12:38;8.77;;;3.30;;
22415;SDS011;12204;50.600;4.608;2023-05-02T04:17:41;8.35;;;2.90;;
22415;SDS011;12204;50.600;4.608;2023-05-02T04:22:48;7.97;;;2.83;;
22415;SDS011;12204;50.600;4.608;2023-05-02T04:27:52;6.43;;;3.10;;
22415;SDS011;12204;50.600;4.608;2023-05-02T04:32:57;8.75;;;2.78;;
22415;SDS011;12204;50.600;4.608;2023-05-02T04:38:06;6.28;;;2.95;;
22415;SDS011;12204;50.600;4.608;2023-05-02T04:43:11;5.95;;;2.78;;
22415;SDS011;12204;50.600;4.608;2023-05-02T04:48:21;8.10;;;3.00;;
22415;SDS011;12204;50.600;4.608;2023-05-02T04:53:27;6.18;;;2.90;;
22415;SDS011;12204;50.600;4.608;2023-05-02T04:58:31;9.30;;;2.90;;
22415;SDS011;12204;50.600;4.608;2023-05-02T05:03:38;7.80;;;3.35;;
22415;SDS011;12204;50.600;4.608;2023-05-02T05:08:44;7.50;;;2.85;;
22415;SDS011;12204;50.600;4.608;2023-05-02T05:13:50;8.93;;;2.90;;
22415;SDS011;12204;50.600;4.608;2023-05-02T05:18:54;6.57;;;2.78;;
22415;SDS011;12204;50.600;4.608;2023-05-02T05:23:59;8.15;;;3.28;;
22415;SDS011;12204;50.600;4.608;2023-05-02T05:29:03;9.10;;;3.30;;
22415;SDS011;12204;50.600;4.608;2023-05-02T05:34:12;7.57;;;2.90;;
22415;SDS011;12204;50.600;4.608;2023-05-02T05:39:19;8.80;;;2.90;;
22415;SDS011;12204;50.600;4.608;2023-05-02T05:44:26;8.30;;;3.08;;
22415;SDS011;12204;50.600;4.608;2023-05-02T05:49:30;6.60;;;2.80;;
22415;SDS011;12204;50.600;4.608;2023-05-02T05:54:42;6.90;;;2.83;;
22415;SDS011;12204;50.600;4.608;2023-05-02T05:59:45;7.05;;;2.65;;
22415;SDS011;12204;50.600;4.608;2023-05-02T06:04:50;7.18;;;2.92;;
22415;SDS011;12204;50.600;4.608;2023-05-02T06:09:58;5.78;;;2.67;;
22415;SDS011;12204;50.600;4.608;2023-05-02T06:15:05;7.70;;;3.10;;
22415;SDS011;12204;50.600;4.608;2023-05-02T06:20:10;7.38;;;3.13;;
22415;SDS011;12204;50.600;4.608;2023-05-02T06:25:15;6.88;;;2.90;;
22415;SDS011;12204;50.600;4.608;2023-05-02T06:30:19;5.55;;;2.80;;
22415;SDS011;12204;50.600;4.608;2023-05-02T06:35:22;5.63;;;2.83;;
22415;SDS011;12204;50.600;4.608;2023-05-02T06:40:27;6.78;;;3.03;;
22415;SDS011;12204;50.600;4.608;2023-05-02T06:45:30;9.10;;;3.03;;
22415;SDS011;12204;50.600;4.608;2023-05-02T06:50:34;6.43;;;3.10;;
22415;SDS011;12204;50.600;4.608;2023-05-02T06:55:39;6.20;;;2.85;;
22415;SDS011;12204;50.600;4.608;2023-05-02T07:00:42;6.55;;;2.88;;
22415;SDS011;12204;50.600;4.608;2023-05-02T07:05:46;6.78;;;2.97;;
22415;SDS011;12204;50.600;4.608;2023-05-02T07:10:51;13.30;;;3.10;;
22415;SDS011;12204;50.600;4.608;2023-05-02T07:15:54;11.10;;;4.63;;
22415;SDS011;12204;50.600;4.608;2023-05-02T07:20:58;14.40;;;4.22;;
22415;SDS011;12204;50.600;4.608;2023-05-02T07:26:03;10.63;;;3.85;;
22415;SDS011;12204;50.600;4.608;2023-05-02T07:31:07;13.05;;;3.92;;
22415;SDS011;12204;50.600;4.608;2023-05-02T07:36:11;14.95;;;3.78;;
22415;SDS011;12204;50.600;4.608;2023-05-02T07:41:15;10.85;;;3.40;;
22415;SDS011;12204;50.600;4.608;2023-05-02T07:46:19;12.93;;;3.67;;
22415;SDS011;12204;50.600;4.608;2023-05-02T07:51:22;9.88;;;3.65;;
22415;SDS011;12204;50.600;4.608;2023-05-02T07:56:28;9.05;;;3.25;;
22415;SDS011;12204;50.600;4.608;2023-05-02T08:01:32;8.90;;;3.30;;
22415;SDS011;12204;50.600;4.608;2023-05-02T08:06:35;7.05;;;3.30;;
22415;SDS011;12204;50.600;4.608;2023-05-02T08:11:40;9.60;;;3.20;;
22415;SDS011;12204;50.600;4.608;2023-05-02T08:16:43;10.00;;;3.30;;
22415;SDS011;12204;50.600;4.608;2023-05-02T08:21:47;10.75;;;3.30;;
22415;SDS011;12204;50.600;4.608;2023-05-02T08:26:52;7.47;;;3.13;;
22415;SDS011;12204;50.600;4.608;2023-05-02T08:31:55;8.68;;;3.20;;
22415;SDS011;12204;50.600;4.608;2023-05-02T08:36:59;9.55;;;3.42;;
22415;SDS011;12204;50.600;4.608;2023-05-02T08:42:06;7.80;;;3.38;;
22415;SDS011;12204;50.600;4.608;2023-05-02T08:52:15;9.45;;;3.63;;
22415;SDS011;12204;50.600;4.608;2023-05-02T08:57:23;9.98;;;3.55;;
22415;SDS011;12204;50.600;4.608;2023-05-02T09:02:34;8.38;;;3.90;;
22415;SDS011;12204;50.600;4.608;2023-05-02T09:07:53;40.55;;;14.93;;
22415;SDS011;12204;50.600;4.608;2023-05-02T09:12:58;25.10;;;9.13;;
22415;SDS011;12204;50.600;4.608;2023-05-02T09:18:35;20.88;;;8.55;;
22415;SDS011;12204;50.600;4.608;2023-05-02T09:23:42;54.15;;;21.55;;
22415;SDS011;12204;50.600;4.608;2023-05-02T09:28:49;75.07;;;30.87;;
22415;SDS011;12204;50.600;4.608;2023-05-02T09:33:56;49.55;;;19.50;;
22415;SDS011;12204;50.600;4.608;2023-05-02T09:39:10;39.60;;;16.90;;
22415;SDS011;12204;50.600;4.608;2023-05-02T09:44:17;36.75;;;15.07;;
22415;SDS011;12204;50.600;4.608;2023-05-02T09:49:39;36.40;;;14.82;;
22415;SDS011;12204;50.600;4.608;2023-05-02T09:54:45;41.25;;;14.52;;
22415;SDS011;12204;50.600;4.608;2023-05-02T09:59:55;34.65;;;13.50;;
22415;SDS011;12204;50.600;4.608;2023-05-02T10:05:00;32.53;;;12.00;;
22415;SDS011;12204;50.600;4.608;2023-05-02T10:10:06;29.63;;;11.90;;
22415;SDS011;12204;50.600;4.608;2023-05-02T10:15:14;28.63;;;11.80;;
22415;SDS011;12204;50.600;4.608;2023-05-02T10:20:21;26.77;;;10.63;;
22415;SDS011;12204;50.600;4.608;2023-05-02T10:25:31;27.10;;;10.55;;
22415;SDS011;12204;50.600;4.608;2023-05-02T10:30:37;24.60;;;10.13;;
22415;SDS011;12204;50.600;4.608;2023-05-02T10:35:42;22.13;;;9.02;;
22415;SDS011;12204;50.600;4.608;2023-05-02T10:40:51;21.30;;;8.82;;
22415;SDS011;12204;50.600;4.608;2023-05-02T10:46:00;23.00;;;8.45;;
22415;SDS011;12204;50.600;4.608;2023-05-02T10:51:04;21.33;;;8.57;;
22415;SDS011;12204;50.600;4.608;2023-05-02T10:56:15;54.42;;;18.27;;
22415;SDS011;12204;50.600;4.608;2023-05-02T11:01:36;73.70;;;23.55;;
22415;SDS011;12204;50.600;4.608;2023-05-02T11:17:58;40.03;;;14.48;;
22415;SDS011;12204;50.600;4.608;2023-05-02T11:28:40;35.17;;;12.27;;
22415;SDS011;12204;50.600;4.608;2023-05-02T11:33:55;41.28;;;13.10;;
22415;SDS011;12204;50.600;4.608;2023-05-02T11:38:59;32.03;;;11.63;;
22415;SDS011;12204;50.600;4.608;2023-05-02T11:44:06;29.85;;;10.52;;
22415;SDS011;12204;50.600;4.608;2023-05-02T11:49:10;27.92;;;10.40;;
22415;SDS011;12204;50.600;4.608;2023-05-02T11:54:17;29.75;;;10.18;;
22415;SDS011;12204;50.600;4.608;2023-05-02T11:59:21;27.70;;;10.10;;
22415;SDS011;12204;50.600;4.608;2023-05-02T12:04:26;24.92;;;9.48;;
22415;SDS011;12204;50.600;4.608;2023-05-02T12:09:29;21.23;;;8.35;;
22415;SDS011;12204;50.600;4.608;2023-05-02T12:14:33;23.88;;;9.00;;
22415;SDS011;12204;50.600;4.608;2023-05-02T12:19:40;23.83;;;8.20;;
22415;SDS011;12204;50.600;4.608;2023-05-02T12:24:43;52.13;;;17.70;;
22415;SDS011;12204;50.600;4.608;2023-05-02T12:29:47;51.40;;;18.75;;
22415;SDS011;12204;50.600;4.608;2023-05-02T12:34:52;47.22;;;17.90;;
22415;SDS011;12204;50.600;4.608;2023-05-02T12:39:56;42.15;;;16.00;;
22415;SDS011;12204;50.600;4.608;2023-05-02T12:45:04;42.10;;;15.13;;
22415;SDS011;12204;50.600;4.608;2023-05-02T12:50:21;34.38;;;13.57;;
22415;SDS011;12204;50.600;4.608;2023-05-02T12:55:40;33.72;;;12.65;;
22415;SDS011;12204;50.600;4.608;2023-05-02T13:00:45;32.72;;;11.75;;
22415;SDS011;12204;50.600;4.608;2023-05-02T13:05:54;32.13;;;12.27;;
22415;SDS011;12204;50.600;4.608;2023-05-02T13:10:59;30.67;;;11.02;;
22415;SDS011;12204;50.600;4.608;2023-05-02T13:16:04;25.48;;;9.80;;
22415;SDS011;12204;50.600;4.608;2023-05-02T13:21:12;21.50;;;8.90;;
22415;SDS011;12204;50.600;4.608;2023-05-02T13:26:17;24.05;;;9.07;;
22415;SDS011;12204;50.600;4.608;2023-05-02T13:31:22;22.02;;;8.57;;
22415;SDS011;12204;50.600;4.608;2023-05-02T13:36:28;22.05;;;8.13;;
22415;SDS011;12204;50.600;4.608;2023-05-02T13:41:33;18.85;;;7.55;;
22415;SDS011;12204;50.600;4.608;2023-05-02T13:46:37;20.88;;;7.32;;
22415;SDS011;12204;50.600;4.608;2023-05-02T13:51:42;17.60;;;7.00;;
22415;SDS011;12204;50.600;4.608;2023-05-02T13:56:45;16.42;;;7.13;;
22415;SDS011;12204;50.600;4.608;2023-05-02T14:01:49;16.00;;;6.57;;
22415;SDS011;12204;50.600;4.608;2023-05-02T14:06:54;16.35;;;6.30;;
22415;SDS011;12204;50.600;4.608;2023-05-02T14:11:57;14.82;;;6.43;;
22415;SDS011;12204;50.600;4.608;2023-05-02T14:17:02;16.70;;;6.25;;
22415;SDS011;12204;50.600;4.608;2023-05-02T14:22:07;14.93;;;6.20;;
22415;SDS011;12204;50.600;4.608;2023-05-02T14:27:10;15.38;;;5.80;;
22415;SDS011;12204;50.600;4.608;2023-05-02T14:32:18;13.45;;;5.80;;
22415;SDS011;12204;50.600;4.608;2023-05-02T14:37:23;18.17;;;6.32;;
22415;SDS011;12204;50.600;4.608;2023-05-02T14:42:27;16.17;;;5.68;;
22415;SDS011;12204;50.600;4.608;2023-05-02T14:47:30;13.18;;;5.57;;
22415;SDS011;12204;50.600;4.608;2023-05-02T14:52:35;10.93;;;4.63;;
22415;SDS011;12204;50.600;4.608;2023-05-02T14:57:38;11.38;;;4.53;;
22415;SDS011;12204;50.600;4.608;2023-05-02T15:02:42;12.95;;;4.93;;
22415;SDS011;12204;50.600;4.608;2023-05-02T15:07:47;11.00;;;4.15;;
22415;SDS011;12204;50.600;4.608;2023-05-02T15:12:50;12.27;;;4.32;;
22415;SDS011;12204;50.600;4.608;2023-05-02T15:17:54;10.20;;;4.10;;
22415;SDS011;12204;50.600;4.608;2023-05-02T15:22:58;12.80;;;4.28;;
22415;SDS011;12204;50.600;4.608;2023-05-02T15:28:04;12.00;;;4.32;;
22415;SDS011;12204;50.600;4.608;2023-05-02T15:33:08;10.50;;;3.72;;
22415;SDS011;12204;50.600;4.608;2023-05-02T15:38:13;12.52;;;3.90;;
22415;SDS011;12204;50.600;4.608;2023-05-02T15:43:16;10.02;;;3.70;;
22415;SDS011;12204;50.600;4.608;2023-05-02T15:48:20;8.85;;;3.50;;
22415;SDS011;12204;50.600;4.608;2023-05-02T15:53:26;11.88;;;3.78;;
22415;SDS011;12204;50.600;4.608;2023-05-02T15:58:30;9.45;;;3.40;;
22415;SDS011;12204;50.600;4.608;2023-05-02T16:03:33;9.63;;;3.45;;
22415;SDS011;12204;50.600;4.608;2023-05-02T16:08:38;40.90;;;11.23;;
22415;SDS011;12204;50.600;4.608;2023-05-02T16:13:42;59.55;;;16.67;;
22415;SDS011;12204;50.600;4.608;2023-05-02T16:18:45;83.53;;;23.75;;
22415;SDS011;12204;50.600;4.608;2023-05-02T16:23:51;77.18;;;21.48;;
22415;SDS011;12204;50.600;4.608;2023-05-02T16:28:55;71.03;;;19.50;;
22415;SDS011;12204;50.600;4.608;2023-05-02T16:33:58;67.45;;;18.35;;
22415;SDS011;12204;50.600;4.608;2023-05-02T16:39:04;62.08;;;16.80;;
22415;SDS011;12204;50.600;4.608;2023-05-02T16:44:07;52.63;;;15.10;;
22415;SDS011;12204;50.600;4.608;2023-05-02T16:49:11;46.53;;;12.93;;
22415;SDS011;12204;50.600;4.608;2023-05-02T16:54:16;42.05;;;12.07;;
22415;SDS011;12204;50.600;4.608;2023-05-02T16:59:19;36.37;;;11.27;;
22415;SDS011;12204;50.600;4.608;2023-05-02T17:04:23;37.55;;;10.80;;
22415;SDS011;12204;50.600;4.608;2023-05-02T17:09:27;34.45;;;10.48;;
22415;SDS011;12204;50.600;4.608;2023-05-02T17:14:31;28.60;;;9.48;;
22415;SDS011;12204;50.600;4.608;2023-05-02T17:19:35;31.05;;;9.00;;
22415;SDS011;12204;50.600;4.608;2023-05-02T17:24:41;29.40;;;8.43;;
22415;SDS011;12204;50.600;4.608;2023-05-02T17:29:48;27.83;;;8.23;;
22415;SDS011;12204;50.600;4.608;2023-05-02T17:34:51;23.13;;;7.47;;
22415;SDS011;12204;50.600;4.608;2023-05-02T17:39:59;30.42;;;7.30;;
22415;SDS011;12204;50.600;4.608;2023-05-02T17:45:03;27.40;;;6.82;;
22415;SDS011;12204;50.600;4.608;2023-05-02T17:50:09;26.80;;;7.22;;
22415;SDS011;12204;50.600;4.608;2023-05-02T17:55:16;23.17;;;6.53;;
22415;SDS011;12204;50.600;4.608;2023-05-02T18:00:20;21.15;;;5.95;;
22415;SDS011;12204;50.600;4.608;2023-05-02T18:05:24;19.20;;;5.90;;
22415;SDS011;12204;50.600;4.608;2023-05-02T18:10:34;21.58;;;5.68;;
22415;SDS011;12204;50.600;4.608;2023-05-02T18:15:38;19.20;;;5.82;;
22415;SDS011;12204;50.600;4.608;2023-05-02T18:20:42;19.02;;;5.75;;
22415;SDS011;12204;50.600;4.608;2023-05-02T18:25:47;18.83;;;5.30;;
22415;SDS011;12204;50.600;4.608;2023-05-02T18:30:50;18.92;;;5.30;;
22415;SDS011;12204;50.600;4.608;2023-05-02T18:35:53;21.45;;;5.82;;
22415;SDS011;12204;50.600;4.608;2023-05-02T18:40:58;15.50;;;4.65;;
22415;SDS011;12204;50.600;4.608;2023-05-02T18:46:01;17.40;;;4.97;;
22415;SDS011;12204;50.600;4.608;2023-05-02T18:51:05;15.77;;;4.70;;
22415;SDS011;12204;50.600;4.608;2023-05-02T18:56:13;13.35;;;4.63;;
22415;SDS011;12204;50.600;4.608;2023-05-02T19:01:16;22.17;;;6.80;;
22415;SDS011;12204;50.600;4.608;2023-05-02T19:06:22;21.45;;;6.20;;
22415;SDS011;12204;50.600;4.608;2023-05-02T19:11:27;19.77;;;6.72;;
22415;SDS011;12204;50.600;4.608;2023-05-02T19:16:31;22.10;;;6.30;;
22415;SDS011;12204;50.600;4.608;2023-05-02T19:21:35;16.08;;;5.18;;
22415;SDS011;12204;50.600;4.608;2023-05-02T19:26:41;18.52;;;5.53;;
22415;SDS011;12204;50.600;4.608;2023-05-02T19:31:44;16.15;;;5.15;;
22415;SDS011;12204;50.600;4.608;2023-05-02T19:36:48;19.40;;;5.15;;
22415;SDS011;12204;50.600;4.608;2023-05-02T19:41:52;14.20;;;4.78;;
22415;SDS011;12204;50.600;4.608;2023-05-02T19:46:56;19.23;;;5.25;;
22415;SDS011;12204;50.600;4.608;2023-05-02T19:51:59;16.90;;;4.55;;
22415;SDS011;12204;50.600;4.608;2023-05-02T19:57:04;12.75;;;4.00;;
22415;SDS011;12204;50.600;4.608;2023-05-02T20:02:08;13.77;;;4.07;;
22415;SDS011;12204;50.600;4.608;2023-05-02T20:07:12;15.20;;;4.15;;
22415;SDS011;12204;50.600;4.608;2023-05-02T20:12:17;13.60;;;3.72;;
22415;SDS011;12204;50.600;4.608;2023-05-02T20:17:20;11.90;;;4.18;;
22415;SDS011;12204;50.600;4.608;2023-05-02T20:22:24;17.17;;;3.78;;
22415;SDS011;12204;50.600;4.608;2023-05-02T20:27:29;13.55;;;3.67;;
22415;SDS011;12204;50.600;4.608;2023-05-02T20:32:32;12.95;;;3.55;;
22415;SDS011;12204;50.600;4.608;2023-05-02T20:37:36;10.63;;;3.22;;
22415;SDS011;12204;50.600;4.608;2023-05-02T20:42:40;9.30;;;2.90;;
22415;SDS011;12204;50.600;4.608;2023-05-02T20:47:44;11.52;;;3.63;;
22415;SDS011;12204;50.600;4.608;2023-05-02T20:52:48;8.02;;;2.90;;
22415;SDS011;12204;50.600;4.608;2023-05-02T20:57:53;11.63;;;3.35;;
22415;SDS011;12204;50.600;4.608;2023-05-02T21:02:56;8.43;;;3.13;;
22415;SDS011;12204;50.600;4.608;2023-05-02T21:08:00;9.18;;;2.88;;
22415;SDS011;12204;50.600;4.608;2023-05-02T21:13:05;10.13;;;2.88;;
22415;SDS011;12204;50.600;4.608;2023-05-02T21:18:08;8.60;;;2.53;;
22415;SDS011;12204;50.600;4.608;2023-05-02T21:23:12;11.77;;;2.70;;
22415;SDS011;12204;50.600;4.608;2023-05-02T21:28:16;8.77;;;2.60;;
22415;SDS011;12204;50.600;4.608;2023-05-02T21:33:20;8.65;;;2.47;;
22415;SDS011;12204;50.600;4.608;2023-05-02T21:38:24;6.57;;;2.47;;
22415;SDS011;12204;50.600;4.608;2023-05-02T21:43:30;10.02;;;2.83;;
22415;SDS011;12204;50.600;4.608;2023-05-02T21:48:38;7.18;;;2.40;;
22415;SDS011;12204;50.600;4.608;2023-05-02T21:53:42;9.73;;;2.60;;
22415;SDS011;12204;50.600;4.608;2023-05-02T21:58:47;7.30;;;2.55;;
22415;SDS011;12204;50.600;4.608;2023-05-02T22:03:51;7.90;;;2.28;;
22415;SDS011;12204;50.600;4.608;2023-05-02T22:08:55;7.55;;;2.40;;
22415;SDS011;12204;50.600;4.608;2023-05-02T22:14:00;7.10;;;2.33;;
22415;SDS011;12204;50.600;4.608;2023-05-02T22:19:03;10.75;;;2.50;;
22415;SDS011;12204;50.600;4.608;2023-05-02T22:24:07;12.20;;;2.30;;
22415;SDS011;12204;50.600;4.608;2023-05-02T22:29:12;6.90;;;2.13;;
22415;SDS011;12204;50.600;4.608;2023-05-02T22:34:16;6.15;;;1.98;;
22415;SDS011;12204;50.600;4.608;2023-05-02T22:39:20;7.78;;;2.28;;
22415;SDS011;12204;50.600;4.608;2023-05-02T22:44:25;7.95;;;2.00;;
22415;SDS011;12204;50.600;4.608;2023-05-02T22:49:28;7.22;;;2.08;;
22415;SDS011;12204;50.600;4.608;2023-05-02T22:54:33;6.30;;;1.98;;
22415;SDS011;12204;50.600;4.608;2023-05-02T22:59:38;8.30;;;2.10;;
22415;SDS011;12204;50.600;4.608;2023-05-02T23:04:41;5.90;;;2.00;;
22415;SDS011;12204;50.600;4.608;2023-05-02T23:09:44;8.15;;;2.10;;
22415;SDS011;12204;50.600;4.608;2023-05-02T23:14:49;5.93;;;2.10;;
22415;SDS011;12204;50.600;4.608;2023-05-02T23:19:53;7.38;;;2.17;;
22415;SDS011;12204;50.600;4.608;2023-05-02T23:24:56;5.00;;;1.80;;
22415;SDS011;12204;50.600;4.608;2023-05-02T23:30:01;6.22;;;2.08;;
22415;SDS011;12204;50.600;4.608;2023-05-02T23:35:07;5.55;;;2.00;;
22415;SDS011;12204;50.600;4.608;2023-05-02T23:40:12;4.45;;;1.80;;
22415;SDS011;12204;50.600;4.608;2023-05-02T23:45:17;6.90;;;1.70;;
22415;SDS011;12204;50.600;4.608;2023-05-02T23:50:21;5.95;;;1.90;;
22415;SDS011;12204;50.600;4.608;2023-05-02T23:55:25;7.13;;;1.80;;
